Grates Cove, Canada
Current Conditions -  °F | °C
As of 5:42 AM on Friday 31 Oct 2014 (Local Time) from CYYT Reporting Station
Overcast Overcast  
Wind Chill: 42°   Ceiling: 1500
Heat Index: 46°   Visibility: 15mi
Dew Point: 41°   Wind: 9mph
Humidity: 81%   Direction: 300°WNW
Pressure: 29.76"   Gusts: NA
Location:  48.17°N, 52.93°W
Report Text: CYYT 310742Z 30008KT 15SM BKN015 OVC140 08/05 A2976 RMK SC5AC3 SLP082
Loading
Personal Weather Stations






























Interactive Weather Map
Tropical Storm Tracking
New forecast layout! Learn more

10-Day Weather Forecast

Advertisements
Track Severe Weather on mobile